createdAt,value
2023-04-17T00:00:17.742Z,1108.6923
2023-04-17T00:01:20.335Z,1112.1538
2023-04-17T00:02:23.028Z,1116.9231
2023-04-17T00:03:25.557Z,1106.2307
2023-04-17T00:04:28.156Z,1116.6923
2023-04-17T00:05:30.696Z,1115.3846
2023-04-17T00:06:33.210Z,1110.3846
2023-04-17T00:07:35.824Z,1113.3077
2023-04-17T00:08:38.655Z,1106.2307
2023-04-17T00:09:40.995Z,1112.0769
2023-04-17T00:10:44.442Z,1102.4615
2023-04-17T00:11:46.157Z,1094.6923
2023-04-17T00:12:48.707Z,1108.7693
2023-04-17T00:13:51.322Z,1098.6154
2023-04-17T00:14:54.078Z,1104.5385
2023-04-17T00:15:56.595Z,1109.0000
2023-04-17T00:16:59.044Z,1099.6923
2023-04-17T00:18:01.777Z,1102.3846
2023-04-17T00:19:04.204Z,1103.3077
2023-04-17T00:20:07.122Z,1089.0000
2023-04-17T00:21:09.375Z,1093.0769
2023-04-17T00:22:11.980Z,1085.7693
2023-04-17T00:23:14.542Z,1092.6154
2023-04-17T00:24:17.148Z,1093.8462
2023-04-17T00:25:19.712Z,1089.6923
2023-04-17T00:26:22.304Z,1086.1538
2023-04-17T00:27:24.859Z,1090.8462
2023-04-17T00:28:27.474Z,1082.6154
2023-04-17T00:29:30.029Z,1077.0000
2023-04-17T00:30:32.642Z,1078.7693
2023-04-17T00:31:35.226Z,1078.4615
2023-04-17T00:32:37.890Z,1073.7693
2023-04-17T00:33:40.566Z,1079.6923
2023-04-17T00:34:42.974Z,1082.3077
2023-04-17T00:35:45.532Z,1073.3846
2023-04-17T00:36:48.136Z,1068.1538
2023-04-17T00:37:50.720Z,1070.8462
2023-04-17T00:38:53.311Z,1075.0769
2023-04-17T00:39:55.865Z,1077.6923
2023-04-17T00:40:58.469Z,1076.9231
2023-04-17T00:42:01.319Z,1070.8462
2023-04-17T00:43:03.613Z,1071.5385
2023-04-17T00:44:06.365Z,1068.0000
2023-04-17T00:45:08.780Z,1067.5385
2023-04-17T00:46:11.439Z,1058.2307
2023-04-17T00:47:13.956Z,1055.3077
2023-04-17T00:48:16.576Z,1059.6154
2023-04-17T00:49:19.127Z,1054.6154
2023-04-17T00:50:21.747Z,1051.5385
2023-04-17T00:51:24.301Z,1052.1538
2023-04-17T00:52:27.109Z,1051.0769
2023-04-17T00:53:29.463Z,1044.9231
2023-04-17T00:54:32.090Z,1047.2307
2023-04-17T00:55:34.645Z,1054.5385
2023-04-17T00:56:37.246Z,1048.5385
2023-04-17T00:57:39.812Z,1049.3077
2023-04-17T00:58:42.406Z,1052.3077
2023-04-17T00:59:44.960Z,1035.0769
2023-04-17T01:00:47.606Z,1035.4615
2023-04-17T01:01:50.208Z,1052.0769
2023-04-17T01:02:52.829Z,1034.8462
2023-04-17T01:03:55.764Z,1042.3077
2023-04-17T01:04:57.987Z,1035.0769
2023-04-17T01:06:00.538Z,1043.0769
2023-04-17T01:07:03.173Z,1038.4615
2023-04-17T01:08:05.703Z,1026.6154
2023-04-17T01:09:08.306Z,1035.5385
2023-04-17T01:10:10.862Z,1039.8462
2023-04-17T01:11:13.469Z,1019.9231
2023-04-17T01:12:16.023Z,1024.7693
2023-04-17T01:13:18.664Z,1033.8462
2023-04-17T01:14:21.209Z,1026.8462
2023-04-17T01:15:23.821Z,1022.6154
2023-04-17T01:16:26.380Z,1023.6154
2023-04-17T01:17:28.987Z,1015.6154
2023-04-17T01:18:31.527Z,1018.0769
2023-04-17T01:19:34.350Z,1010.4615
2023-04-17T01:20:37.006Z,1019.3077
2023-04-17T01:21:39.308Z,1012.4615
2023-04-17T01:22:41.854Z,1011.9231
2023-04-17T01:23:44.470Z,1016.6923
2023-04-17T01:24:47.039Z,1021.0769
2023-04-17T01:25:49.637Z,1011.3846
2023-04-17T01:26:52.202Z,1004.5385
2023-04-17T01:27:54.795Z,1011.1539
2023-04-17T01:28:57.409Z,1011.4615
2023-04-17T01:29:59.967Z,1010.2308
2023-04-17T01:31:02.566Z,1001.7692
2023-04-17T01:32:05.134Z,995.0769
2023-04-17T01:33:07.707Z,988.0000
2023-04-17T01:34:10.306Z,1000.3846
2023-04-17T01:35:12.874Z,989.0769
2023-04-17T01:36:15.485Z,1001.3077
2023-04-17T01:37:18.041Z,999.4615
2023-04-17T01:38:20.664Z,987.9231
2023-04-17T01:39:23.508Z,981.5385
2023-04-17T01:40:25.835Z,991.9231
2023-04-17T01:41:28.401Z,994.7692
2023-04-17T01:42:30.990Z,991.1539
2023-04-17T01:43:33.569Z,986.4615
2023-04-17T01:44:36.164Z,977.1539
2023-04-17T01:45:38.760Z,984.3846
2023-04-17T01:46:41.409Z,981.4615
2023-04-17T01:47:43.926Z,988.1539
2023-04-17T01:48:46.628Z,976.1539
2023-04-17T01:49:49.069Z,979.2308
2023-04-17T01:50:51.681Z,974.1539
2023-04-17T01:51:54.243Z,976.5385
2023-04-17T01:52:56.847Z,971.9231
2023-04-17T01:53:59.407Z,980.7692
2023-04-17T01:55:02.020Z,979.2308
2023-04-17T01:56:04.586Z,965.1539
2023-04-17T01:57:07.202Z,975.6154
2023-04-17T01:58:09.759Z,974.3077
2023-04-17T01:59:12.504Z,974.5385
2023-04-17T02:00:14.928Z,963.8461
2023-04-17T02:01:17.559Z,959.3077
2023-04-17T02:02:20.332Z,958.8461
2023-04-17T02:03:22.814Z,961.6923
2023-04-17T02:04:25.329Z,952.6154
2023-04-17T02:05:27.883Z,948.4615
2023-04-17T02:06:30.446Z,965.3077
2023-04-17T02:07:33.058Z,960.9231
2023-04-17T02:08:35.617Z,957.1539
2023-04-17T02:09:38.235Z,949.3077
2023-04-17T02:10:40.793Z,967.3846
2023-04-17T02:11:43.404Z,942.1539
2023-04-17T02:12:45.966Z,940.6923
2023-04-17T02:13:48.576Z,933.3846
2023-04-17T02:14:51.137Z,938.3846
2023-04-17T02:15:53.771Z,927.6923
2023-04-17T02:16:56.321Z,947.5385
2023-04-17T02:17:59.018Z,944.9231
2023-04-17T02:19:01.488Z,949.5385
2023-04-17T02:20:04.102Z,935.5385
2023-04-17T02:21:06.661Z,932.7692
2023-04-17T02:22:09.266Z,937.6923
2023-04-17T02:23:11.843Z,941.6923
2023-04-17T02:24:14.434Z,935.3077
2023-04-17T02:25:17.295Z,922.2308
2023-04-17T02:26:19.613Z,923.3077
2023-04-17T02:27:22.163Z,935.3846
2023-04-17T02:28:24.783Z,917.5385
2023-04-17T02:29:27.355Z,921.6154
2023-04-17T02:30:29.942Z,926.5385
2023-04-17T02:31:32.546Z,928.3846
2023-04-17T02:32:35.139Z,929.2308
2023-04-17T02:33:37.685Z,927.3846
2023-04-17T02:34:40.273Z,930.9231
2023-04-17T02:35:42.829Z,924.3077
2023-04-17T02:36:45.453Z,917.5385
2023-04-17T02:37:48.017Z,915.3846
2023-04-17T02:38:50.612Z,910.8461
2023-04-17T02:39:53.183Z,922.5385
2023-04-17T02:40:55.778Z,914.8461
2023-04-17T02:41:58.332Z,904.6923
2023-04-17T02:43:00.952Z,903.3846
2023-04-17T02:44:03.513Z,910.1539
2023-04-17T02:45:06.121Z,916.1539
2023-04-17T02:46:08.825Z,911.3846
2023-04-17T02:47:11.289Z,907.3846
2023-04-17T02:48:13.855Z,916.6923
2023-04-17T02:49:16.449Z,918.2308
2023-04-17T02:50:19.017Z,908.1539
2023-04-17T02:51:21.623Z,906.5385
2023-04-17T02:52:24.237Z,893.7692
2023-04-17T02:53:26.783Z,888.8461
2023-04-17T02:54:29.340Z,890.5385
2023-04-17T02:55:31.946Z,893.6154
2023-04-17T02:56:34.517Z,889.6154
2023-04-17T02:57:37.113Z,897.8461
2023-04-17T02:58:39.711Z,892.8461
2023-04-17T02:59:42.292Z,890.5385
2023-04-17T03:00:44.853Z,888.6923
2023-04-17T03:01:47.504Z,888.0000
2023-04-17T03:02:50.155Z,881.4615
2023-04-17T03:03:52.911Z,878.3077
2023-04-17T03:04:55.170Z,880.1539
2023-04-17T03:05:57.780Z,881.5385
2023-04-17T03:07:00.337Z,896.2308
2023-04-17T03:08:02.943Z,885.9231
2023-04-17T03:09:05.518Z,886.2308
2023-04-17T03:10:08.118Z,877.6923
2023-04-17T03:11:10.670Z,874.2308
2023-04-17T03:12:13.285Z,885.0000
2023-04-17T03:13:15.840Z,884.1539
2023-04-17T03:14:18.484Z,880.0769
2023-04-17T03:15:21.032Z,881.5385
2023-04-17T03:16:23.910Z,886.4615
2023-04-17T03:17:26.201Z,877.4615
2023-04-17T03:18:28.795Z,877.5385
2023-04-17T03:19:31.338Z,868.8461
2023-04-17T03:20:33.956Z,873.2308
2023-04-17T03:21:36.505Z,860.4615
2023-04-17T03:22:39.109Z,877.6154
2023-04-17T03:23:41.673Z,873.9231
2023-04-17T03:24:44.525Z,869.3077
2023-04-17T03:25:46.849Z,870.0000
2023-04-17T03:26:49.480Z,859.4615
2023-04-17T03:27:52.014Z,862.2308
2023-04-17T03:28:54.618Z,862.9231
2023-04-17T03:29:57.199Z,860.7692
2023-04-17T03:30:59.788Z,858.0769
2023-04-17T03:32:02.455Z,849.0769
2023-04-17T03:33:05.009Z,849.3077
2023-04-17T03:34:07.514Z,860.0000
2023-04-17T03:35:10.120Z,851.4615
2023-04-17T03:36:12.685Z,845.6923
2023-04-17T03:37:15.296Z,853.1539
2023-04-17T03:38:17.861Z,846.3846
2023-04-17T03:39:20.854Z,846.4615
2023-04-17T03:40:23.030Z,851.5385
2023-04-17T03:41:25.637Z,844.6154
2023-04-17T03:42:28.203Z,846.7692
2023-04-17T03:43:30.804Z,843.9231
2023-04-17T03:44:33.358Z,851.0769
2023-04-17T03:45:36.233Z,849.0000
2023-04-17T03:46:38.527Z,847.3846
2023-04-17T03:47:41.167Z,843.1539
2023-04-17T03:48:43.703Z,829.9231
2023-04-17T03:49:46.310Z,836.2308
2023-04-17T03:50:48.898Z,838.9231
2023-04-17T03:51:51.477Z,827.7692
2023-04-17T03:52:54.035Z,835.5385
2023-04-17T03:53:56.642Z,828.6923
2023-04-17T03:54:59.201Z,839.2308
2023-04-17T03:56:01.814Z,835.0769
2023-04-17T03:57:04.382Z,835.3077
2023-04-17T03:58:06.992Z,826.0000
2023-04-17T03:59:09.785Z,827.6154
2023-04-17T04:00:12.161Z,827.3846
2023-04-17T04:01:14.793Z,820.7692
2023-04-17T04:02:17.435Z,820.7692
2023-04-17T04:03:20.042Z,822.9231
2023-04-17T04:04:22.827Z,827.7692
2023-04-17T04:05:25.402Z,825.3846
2023-04-17T04:06:27.664Z,824.5385
2023-04-17T04:07:30.269Z,815.0000
2023-04-17T04:08:32.835Z,812.6154
2023-04-17T04:09:35.396Z,819.5385
2023-04-17T04:10:37.999Z,820.3846
2023-04-17T04:11:40.554Z,814.4615
2023-04-17T04:12:43.165Z,811.4615
2023-04-17T04:13:45.722Z,809.3077
2023-04-17T04:14:48.326Z,811.5385
2023-04-17T04:15:50.900Z,812.4615
2023-04-17T04:16:53.496Z,819.6154
2023-04-17T04:17:56.109Z,810.7692
2023-04-17T04:18:58.676Z,806.3077
2023-04-17T04:20:01.269Z,808.4615
2023-04-17T04:21:03.838Z,815.1539
2023-04-17T04:22:06.959Z,797.4615
2023-04-17T04:23:08.989Z,808.1539
2023-04-17T04:24:11.552Z,808.9231
2023-04-17T04:25:14.169Z,802.4615
2023-04-17T04:26:16.713Z,802.6154
2023-04-17T04:27:19.322Z,800.7692
2023-04-17T04:28:21.883Z,814.2308
2023-04-17T04:29:24.493Z,799.0000
2023-04-17T04:30:27.060Z,794.3846
2023-04-17T04:31:29.843Z,794.2308
2023-04-17T04:32:32.298Z,799.3846
2023-04-17T04:33:35.898Z,793.8461
2023-04-17T04:34:37.380Z,797.5385
2023-04-17T04:35:40.007Z,792.2308
2023-04-17T04:36:42.553Z,792.0769
2023-04-17T04:37:45.164Z,782.7692
2023-04-17T04:38:47.726Z,794.6923
2023-04-17T04:39:50.325Z,795.0000
2023-04-17T04:40:52.944Z,791.5385
2023-04-17T04:41:55.502Z,786.6923
2023-04-17T04:42:58.073Z,787.9231
2023-04-17T04:44:00.669Z,784.0769
2023-04-17T04:45:03.239Z,777.6923
2023-04-17T04:46:05.831Z,774.3077
2023-04-17T04:47:08.546Z,777.0000
2023-04-17T04:48:10.995Z,784.2308
2023-04-17T04:49:13.621Z,781.3846
2023-04-17T04:50:17.388Z,772.2308
2023-04-17T04:51:18.755Z,772.1539
2023-04-17T04:52:21.340Z,780.9231
2023-04-17T04:53:24.123Z,771.5385
2023-04-17T04:54:26.514Z,783.6154
2023-04-17T04:55:29.062Z,773.7692
2023-04-17T04:56:33.040Z,781.6154
2023-04-17T04:57:34.229Z,782.8461
2023-04-17T04:58:36.841Z,763.9231
2023-04-17T04:59:39.402Z,768.0769
2023-04-17T05:00:42.052Z,766.2308
2023-04-17T05:01:44.866Z,772.4615
2023-04-17T05:02:47.278Z,765.8461
2023-04-17T05:03:49.874Z,765.2308
2023-04-17T05:04:52.367Z,763.5385
2023-04-17T05:05:54.903Z,769.5385
2023-04-17T05:06:57.612Z,773.4615
2023-04-17T05:08:00.070Z,771.3077
2023-04-17T05:09:02.650Z,771.6923
2023-04-17T05:10:05.285Z,770.0769
2023-04-17T05:11:07.819Z,763.3077
2023-04-17T05:12:10.508Z,758.3077
2023-04-17T05:13:13.084Z,758.9231
2023-04-17T05:14:15.731Z,754.5385
2023-04-17T05:15:18.247Z,748.7692
2023-04-17T05:16:20.882Z,759.3846
2023-04-17T05:17:23.432Z,761.4615
2023-04-17T05:18:26.015Z,747.8461
2023-04-17T05:19:28.564Z,754.9231
2023-04-17T05:20:31.184Z,747.0000
2023-04-17T05:21:33.735Z,748.7692
2023-04-17T05:22:36.339Z,748.0769
2023-04-17T05:23:38.891Z,746.0769
2023-04-17T05:24:41.507Z,749.5385
2023-04-17T05:25:44.064Z,759.9231
2023-04-17T05:26:46.668Z,749.6923
2023-04-17T05:27:49.281Z,736.9231
2023-04-17T05:28:51.828Z,747.0000
2023-04-17T05:29:54.385Z,741.8461
2023-04-17T05:30:56.989Z,743.6154
2023-04-17T05:31:59.604Z,744.2308
2023-04-17T05:33:02.222Z,750.8461
2023-04-17T05:34:04.868Z,747.0769
2023-04-17T05:35:07.344Z,753.0769
2023-04-17T05:36:09.893Z,748.5385
2023-04-17T05:37:12.484Z,761.6923
2023-04-17T05:38:15.045Z,763.0769
2023-04-17T05:39:17.665Z,750.2308
2023-04-17T05:40:20.210Z,752.2308
2023-04-17T05:41:22.822Z,752.3077
2023-04-17T05:42:25.379Z,749.9231
2023-04-17T05:43:28.005Z,744.3846
2023-04-17T05:44:30.548Z,743.0000
2023-04-17T05:45:33.329Z,731.0000
2023-04-17T05:46:35.717Z,747.5385
2023-04-17T05:47:38.515Z,739.0000
2023-04-17T05:48:40.876Z,730.0769
2023-04-17T05:49:43.496Z,731.9231
2023-04-17T05:50:46.058Z,728.1539
2023-04-17T05:51:48.672Z,736.2308
2023-04-17T05:52:51.236Z,738.3077
2023-04-17T05:53:53.851Z,754.6923
2023-04-17T05:54:56.389Z,732.8461
2023-04-17T05:55:58.995Z,738.6923
2023-04-17T05:57:01.555Z,727.9231
2023-04-17T05:58:16.862Z,732.7692
2023-04-17T05:59:07.753Z,751.3846
2023-04-17T06:00:09.336Z,734.6154
2023-04-17T06:01:11.914Z,728.0000
2023-04-17T06:02:14.587Z,744.8461
2023-04-17T06:03:18.162Z,729.6154
2023-04-17T06:04:19.987Z,722.6923
2023-04-17T06:05:22.327Z,713.2308
2023-04-17T06:06:24.846Z,723.1539
2023-04-17T06:07:27.401Z,744.8461
2023-04-17T06:08:30.016Z,758.3846
2023-04-17T06:09:32.581Z,788.3846
2023-04-17T06:10:35.198Z,833.9231
2023-04-17T06:11:37.748Z,883.7692
2023-04-17T06:12:40.361Z,926.6154
2023-04-17T06:13:42.966Z,943.4615
2023-04-17T06:14:45.525Z,987.0000
2023-04-17T06:15:48.077Z,1022.2308
2023-04-17T06:16:50.850Z,1049.7693
2023-04-17T06:17:53.319Z,1059.5385
2023-04-17T06:18:55.860Z,1041.0000
2023-04-17T06:19:58.414Z,1034.6923
2023-04-17T06:21:01.051Z,1020.4615
2023-04-17T06:22:03.584Z,1024.0000
2023-04-17T06:23:06.196Z,1009.2308
2023-04-17T06:24:08.764Z,1005.5385
2023-04-17T06:25:11.915Z,997.6923
2023-04-17T06:26:13.929Z,994.8461
2023-04-17T06:27:16.533Z,988.9231
2023-04-17T06:28:19.099Z,986.4615
2023-04-17T06:29:21.734Z,992.3077
2023-04-17T06:30:24.256Z,988.3077
2023-04-17T06:31:26.888Z,980.3846
2023-04-17T06:32:29.484Z,970.7692
2023-04-17T06:33:32.062Z,995.9231
2023-04-17T06:34:34.604Z,980.5385
2023-04-17T06:35:37.206Z,994.6154
2023-04-17T06:36:39.792Z,991.0769
2023-04-17T06:37:42.576Z,984.5385
2023-04-17T06:38:44.933Z,988.9231
2023-04-17T06:39:47.535Z,993.0000
2023-04-17T06:40:52.131Z,990.2308
2023-04-17T06:41:52.703Z,968.4615
2023-04-17T06:42:55.308Z,984.0000
2023-04-17T06:43:57.865Z,989.4615
2023-04-17T06:45:00.434Z,1083.3077
2023-04-17T06:46:03.054Z,1079.3846
2023-04-17T06:47:05.593Z,1046.8462
2023-04-17T06:48:08.201Z,1030.0000
2023-04-17T06:49:11.038Z,1076.0769
2023-04-17T06:50:13.387Z,1088.1538
2023-04-17T06:51:15.917Z,1102.8462
2023-04-17T06:52:18.525Z,1097.0000
2023-04-17T06:53:21.086Z,1105.4615
2023-04-17T06:54:23.700Z,1150.2307
2023-04-17T06:55:26.277Z,1184.3077
2023-04-17T06:56:28.893Z,1218.3077
2023-04-17T06:57:31.412Z,1250.5385
2023-04-17T06:58:34.030Z,1270.7693
2023-04-17T06:59:36.575Z,1275.0769
2023-04-17T07:00:39.200Z,1262.0000
2023-04-17T07:01:41.826Z,1275.3846
2023-04-17T07:02:44.433Z,1284.0000
2023-04-17T07:03:47.082Z,1273.6154
2023-04-17T07:04:49.784Z,1271.7693
2023-04-17T07:05:52.084Z,1272.3077
2023-04-17T07:06:54.684Z,1274.5385
2023-04-17T07:07:57.237Z,1275.0769
2023-04-17T07:09:00.120Z,1272.6923
2023-04-17T07:10:02.413Z,1261.8462
2023-04-17T07:11:05.048Z,1274.3077
2023-04-17T07:12:07.589Z,1277.0000
2023-04-17T07:13:10.192Z,1283.1538
2023-04-17T07:14:12.973Z,1271.0769
2023-04-17T07:15:15.523Z,1275.5385
2023-04-17T07:16:17.981Z,1278.5385
2023-04-17T07:17:20.613Z,1278.4615
2023-04-17T07:18:23.095Z,1270.6154
2023-04-17T07:19:25.703Z,1277.0000
2023-04-17T07:20:28.283Z,1292.9231
2023-04-17T07:21:30.872Z,1295.0000
2023-04-17T07:22:33.434Z,1291.7693
2023-04-17T07:23:36.035Z,1299.4615
2023-04-17T07:24:38.603Z,1299.5385
2023-04-17T07:25:41.235Z,1310.0769
2023-04-17T07:26:44.040Z,1300.7693
2023-04-17T07:27:46.382Z,1303.0000
2023-04-17T07:28:48.942Z,1309.6154
2023-04-17T07:29:51.564Z,1313.9231
2023-04-17T07:30:54.107Z,1328.2307
2023-04-17T07:31:56.928Z,1335.7693
2023-04-17T07:32:59.534Z,1326.3846
2023-04-17T07:34:01.925Z,1332.2307
2023-04-17T07:35:04.494Z,1348.2307
2023-04-17T07:36:07.072Z,1367.8462
2023-04-17T07:37:09.632Z,1363.2307
2023-04-17T07:38:12.254Z,1375.5385
2023-04-17T07:39:14.855Z,1396.4615
2023-04-17T07:40:17.410Z,1395.6923
2023-04-17T07:41:19.971Z,1396.4615
2023-04-17T07:42:22.661Z,1409.4615
2023-04-17T07:43:25.206Z,1421.8462
2023-04-17T07:44:27.766Z,1418.2307
2023-04-17T07:45:30.334Z,1417.0000
2023-04-17T07:46:33.005Z,1436.6154
2023-04-17T07:47:35.557Z,1434.3846
2023-04-17T07:48:38.117Z,1423.3846
2023-04-17T07:49:40.675Z,1429.8462
2023-04-17T07:50:43.276Z,1446.4615
2023-04-17T07:51:45.830Z,1447.7693
2023-04-17T07:52:48.453Z,1445.6154
2023-04-17T07:53:51.031Z,1458.9231
2023-04-17T07:54:53.628Z,1437.7693
2023-04-17T07:55:56.228Z,1452.6923
2023-04-17T07:56:58.856Z,1454.8462
2023-04-17T07:58:01.345Z,1452.0769
2023-04-17T07:59:03.958Z,1456.9231
2023-04-17T08:00:06.511Z,1468.8462
2023-04-17T08:01:09.126Z,1462.4615
2023-04-17T08:02:11.800Z,1494.7693
2023-04-17T08:03:14.504Z,1470.6923
2023-04-17T08:04:17.338Z,1454.3846
2023-04-17T08:05:19.531Z,1460.3077
2023-04-17T08:06:22.023Z,1465.5385
2023-04-17T08:07:24.668Z,1472.3846
2023-04-17T08:08:27.202Z,1468.2307
2023-04-17T08:09:29.815Z,1462.7693
2023-04-17T08:10:32.372Z,1473.1538
2023-04-17T08:11:40.095Z,1476.0000
2023-04-17T08:12:38.823Z,1467.2307
2023-04-17T08:13:40.150Z,1468.7500
2023-04-17T08:14:42.709Z,1452.7693
2023-04-17T08:15:45.329Z,1475.7693
2023-04-17T08:16:47.952Z,1470.7693
2023-04-17T08:17:50.526Z,1478.3846
2023-04-17T08:18:53.055Z,1471.2307
2023-04-17T08:19:55.692Z,1477.5385
2023-04-17T08:20:58.217Z,1476.6923
2023-04-17T08:22:00.837Z,1479.6923
2023-04-17T08:23:03.402Z,1469.3846
2023-04-17T08:24:06.003Z,1455.1538
2023-04-17T08:25:08.557Z,1472.5385
2023-04-17T08:26:11.167Z,1477.0769
2023-04-17T08:27:13.730Z,1467.3846
2023-04-17T08:28:16.379Z,1475.6923
2023-04-17T08:29:18.951Z,1478.4615
2023-04-17T08:30:21.496Z,1465.3077
2023-04-17T08:31:24.177Z,1462.1538
2023-04-17T08:32:26.674Z,1448.4615
2023-04-17T08:33:29.224Z,1458.4615
2023-04-17T08:34:31.987Z,1473.6154
2023-04-17T08:35:34.389Z,1464.3077
2023-04-17T08:36:37.001Z,1461.5385
2023-04-17T08:37:39.569Z,1484.5385
2023-04-17T08:38:42.208Z,1487.6923
2023-04-17T08:39:44.730Z,1466.1538
2023-04-17T08:40:47.357Z,1484.0769
2023-04-17T08:41:49.893Z,1475.3846
2023-04-17T08:42:52.505Z,1488.5385
2023-04-17T08:43:55.078Z,1479.5385
2023-04-17T08:44:57.666Z,1467.1538
2023-04-17T08:46:00.604Z,1473.0000
2023-04-17T08:47:02.840Z,1458.2307
2023-04-17T08:48:05.424Z,1444.4615
2023-04-17T08:49:08.015Z,1454.4615
2023-04-17T08:50:10.595Z,1459.8462
2023-04-17T08:51:13.178Z,1465.9231
2023-04-17T08:52:15.746Z,1474.8462
2023-04-17T08:53:18.341Z,1445.9231
2023-04-17T08:54:20.897Z,1433.0000
2023-04-17T08:55:23.522Z,1442.0000
2023-04-17T08:56:26.076Z,1453.3077
2023-04-17T08:57:28.675Z,1455.0000
2023-04-17T08:58:31.236Z,1442.8462
2023-04-17T08:59:33.867Z,1453.5385
2023-04-17T09:00:36.435Z,1466.2307
2023-04-17T09:01:39.089Z,1448.3077
2023-04-17T09:02:41.716Z,1444.1538
2023-04-17T09:03:44.338Z,1457.3077
2023-04-17T09:04:46.859Z,1442.1538
2023-04-17T09:05:49.359Z,1448.0000
2023-04-17T09:06:52.025Z,1458.0000
2023-04-17T09:07:54.528Z,1455.2307
2023-04-17T09:08:57.086Z,1427.9231
2023-04-17T09:09:59.708Z,1426.0000
2023-04-17T09:11:02.276Z,1443.6154
2023-04-17T09:12:04.890Z,1429.1538
2023-04-17T09:13:07.474Z,1431.3077
2023-04-17T09:14:10.037Z,1421.3846
2023-04-17T09:15:12.603Z,1437.2307
2023-04-17T09:16:15.281Z,1428.8462
2023-04-17T09:17:17.770Z,1423.4615
2023-04-17T09:18:20.451Z,1447.4615
2023-04-17T09:19:23.133Z,1427.6923
2023-04-17T09:20:25.772Z,1425.4615
2023-04-17T09:21:28.174Z,1422.3077
2023-04-17T09:22:30.792Z,1412.0000
2023-04-17T09:23:33.352Z,1419.6154
2023-04-17T09:24:36.316Z,1416.1538
2023-04-17T09:25:38.514Z,1414.3846
2023-04-17T09:26:41.135Z,1411.6923
2023-04-17T09:27:43.682Z,1421.3846
2023-04-17T09:28:46.303Z,1429.4615
2023-04-17T09:29:48.854Z,1420.9231
2023-04-17T09:30:51.466Z,1416.4615
2023-04-17T09:31:54.095Z,1411.8462
2023-04-17T09:32:56.785Z,1409.9231
2023-04-17T09:33:59.216Z,1413.3846
2023-04-17T09:35:01.825Z,1396.4615
2023-04-17T09:36:04.401Z,1401.7693
2023-04-17T09:37:07.969Z,1383.6923
2023-04-17T09:38:09.559Z,1409.6154
2023-04-17T09:39:12.242Z,1427.3077
2023-04-17T09:40:14.723Z,1400.4615
2023-04-17T09:41:17.407Z,1398.6154
2023-04-17T09:42:19.914Z,1397.3846
2023-04-17T09:43:22.442Z,1403.6154
2023-04-17T09:44:25.057Z,1398.8462
2023-04-17T09:45:48.604Z,1404.0769
2023-04-17T09:46:30.250Z,1392.3750
2023-04-17T09:47:32.838Z,1380.0769
2023-04-17T09:48:35.368Z,1391.3846
2023-04-17T09:49:38.198Z,1412.0769
2023-04-17T09:50:40.527Z,1414.1538
2023-04-17T09:51:43.155Z,1409.0769
2023-04-17T09:52:45.713Z,1405.6923
2023-04-17T09:53:48.363Z,1413.1538
2023-04-17T09:54:50.849Z,1419.2307
2023-04-17T09:55:53.467Z,1418.6923
2023-04-17T09:56:56.213Z,1402.8462
2023-04-17T09:57:58.625Z,1403.4615
2023-04-17T09:59:01.193Z,1401.0000
2023-04-17T10:00:03.786Z,1387.3846
2023-04-17T10:01:06.401Z,1417.0000
2023-04-17T10:02:09.092Z,1398.6923
2023-04-17T10:03:11.760Z,1413.8462
2023-04-17T10:04:14.440Z,1386.0769
2023-04-17T10:05:16.672Z,1398.4615
2023-04-17T10:06:19.306Z,1391.8462
2023-04-17T10:07:21.842Z,1403.7693
2023-04-17T10:08:24.451Z,1416.3077
2023-04-17T10:09:27.043Z,1443.0000
2023-04-17T10:10:29.670Z,1452.4615
2023-04-17T10:11:32.196Z,1485.3077
2023-04-17T10:12:35.113Z,1495.3846
2023-04-17T10:13:37.337Z,1504.0000
2023-04-17T10:14:39.953Z,1491.3077
2023-04-17T10:15:42.500Z,1379.2307
2023-04-17T10:16:45.327Z,829.0769
2023-04-17T10:17:47.677Z,486.0769
2023-04-17T10:18:50.293Z,370.5385
2023-04-17T10:19:52.852Z,531.2308
2023-04-17T10:20:55.534Z,942.3077
2023-04-17T10:21:58.006Z,1021.1539
2023-04-17T10:23:00.617Z,1027.2307
2023-04-17T10:24:03.174Z,1051.5385
2023-04-17T10:25:05.768Z,1070.0000
2023-04-17T10:26:08.335Z,1080.5385
2023-04-17T10:27:10.958Z,1058.6923
2023-04-17T10:28:13.507Z,1078.4615
2023-04-17T10:29:16.109Z,1109.4615
2023-04-17T10:31:21.311Z,1151.0000
2023-04-17T10:32:23.818Z,1149.5385
2023-04-17T10:33:26.470Z,1136.6923
2023-04-17T10:34:29.045Z,1134.5385
2023-04-17T10:35:31.603Z,1130.6154
2023-04-17T10:36:34.156Z,1124.8462
2023-04-17T10:37:36.764Z,1131.9231
2023-04-17T10:38:39.319Z,1137.0769
2023-04-17T10:39:41.928Z,1120.1538
2023-04-17T10:40:44.548Z,1108.6923
2023-04-17T10:41:47.106Z,1111.3077
2023-04-17T10:42:49.661Z,1119.7693
2023-04-17T10:43:52.290Z,1130.7693
2023-04-17T10:44:54.845Z,1123.8462
2023-04-17T10:45:57.531Z,1109.6923
2023-04-17T10:46:59.993Z,1108.8462
2023-04-17T10:48:02.697Z,1116.3846
2023-04-17T10:49:05.185Z,1124.0769
2023-04-17T10:50:07.790Z,1129.9231
2023-04-17T10:51:10.355Z,1144.2307
2023-04-17T10:52:12.944Z,1155.6154
2023-04-17T10:53:15.504Z,1128.6154
2023-04-17T10:54:18.114Z,1132.7693
2023-04-17T10:55:20.686Z,1134.0000
2023-04-17T10:56:23.285Z,1130.7693
2023-04-17T10:57:26.176Z,1151.8462
2023-04-17T10:58:31.616Z,1141.7693
2023-04-17T10:59:31.010Z,1126.4615
2023-04-17T11:00:33.628Z,1119.3846
2023-04-17T11:01:36.197Z,1121.3077
2023-04-17T11:02:38.841Z,963.5385
2023-04-17T11:03:41.375Z,611.3846
2023-04-17T11:04:43.979Z,371.4615
2023-04-17T11:05:46.524Z,643.6923
2023-04-17T11:06:49.136Z,800.3077
2023-04-17T11:07:51.676Z,889.5385
2023-04-17T11:08:55.615Z,898.0769
2023-04-17T11:09:56.824Z,897.5385
2023-04-17T11:10:59.461Z,890.6923
2023-04-17T11:12:02.383Z,904.6923
2023-04-17T11:13:04.606Z,899.9231
2023-04-17T11:14:07.152Z,892.2308
2023-04-17T11:15:09.818Z,894.0000
2023-04-17T11:16:12.318Z,870.5385
2023-04-17T11:17:14.954Z,842.2308
